createdAt,value
2023-01-29T00:00:21.936Z,63.40
2023-01-29T00:02:50.342Z,63.40
2023-01-29T00:05:27.790Z,63.60
2023-01-29T00:07:57.522Z,63.60
2023-01-29T00:10:26.489Z,63.50
2023-01-29T00:12:54.843Z,63.50
2023-01-29T00:15:24.565Z,63.40
2023-01-29T00:17:52.732Z,63.50
2023-01-29T00:20:21.086Z,63.50
2023-01-29T00:22:49.527Z,63.60
2023-01-29T00:25:17.791Z,63.70
2023-01-29T00:27:45.946Z,63.80
2023-01-29T00:30:19.366Z,63.90
2023-01-29T00:32:49.195Z,63.80
2023-01-29T00:35:17.438Z,63.70
2023-01-29T00:37:45.580Z,63.70
2023-01-29T00:40:14.317Z,63.70
2023-01-29T00:43:00.307Z,63.80
2023-01-29T00:45:28.488Z,63.90
2023-01-29T00:47:58.019Z,63.90
2023-01-29T00:50:26.212Z,64.00
2023-01-29T00:52:54.629Z,64.00
2023-01-29T00:55:23.194Z,64.00
2023-01-29T00:57:51.282Z,63.90
2023-01-29T01:00:20.437Z,63.80
2023-01-29T01:03:06.108Z,63.80
2023-01-29T01:05:36.758Z,63.90
2023-01-29T01:08:25.286Z,63.90
2023-01-29T01:11:00.201Z,64.00
2023-01-29T01:13:28.923Z,64.00
2023-01-29T01:15:57.093Z,64.00
2023-01-29T01:18:25.333Z,64.00
2023-01-29T01:20:58.646Z,64.00
2023-01-29T01:23:27.946Z,64.10
2023-01-29T01:25:56.212Z,64.10
2023-01-29T01:28:24.750Z,64.20
2023-01-29T01:30:52.973Z,64.10
2023-01-29T01:33:21.303Z,64.00
2023-01-29T01:35:49.505Z,64.00
2023-01-29T01:38:19.010Z,64.00
2023-01-29T01:40:47.646Z,64.00
2023-01-29T01:43:15.973Z,63.90
2023-01-29T01:45:46.581Z,63.90
2023-01-29T01:48:19.176Z,63.90
2023-01-29T01:50:51.039Z,63.90
2023-01-29T01:53:26.175Z,63.90
2023-01-29T01:55:57.235Z,63.80
2023-01-29T01:58:28.832Z,63.80
2023-01-29T02:00:57.619Z,63.70
2023-01-29T02:03:46.497Z,63.70
2023-01-29T02:06:31.940Z,63.70
2023-01-29T02:09:23.711Z,63.80
2023-01-29T02:11:52.606Z,63.90
2023-01-29T02:14:21.371Z,63.80
2023-01-29T02:16:49.603Z,63.80
2023-01-29T02:19:28.868Z,64.00
2023-01-29T02:22:18.169Z,64.00
2023-01-29T02:25:16.105Z,64.10
2023-01-29T02:28:21.444Z,64.30
2023-01-29T02:30:58.986Z,64.10
2023-01-29T02:33:36.519Z,64.10
2023-01-29T02:36:16.946Z,64.00
2023-01-29T02:38:51.959Z,64.00
2023-01-29T02:41:29.900Z,63.90
2023-01-29T02:44:07.801Z,64.10
2023-01-29T02:46:41.360Z,64.10
2023-01-29T02:49:15.985Z,64.00
2023-01-29T02:51:49.698Z,64.00
2023-01-29T02:54:22.960Z,64.00
2023-01-29T02:56:57.218Z,64.10
2023-01-29T02:59:32.752Z,64.20
2023-01-29T03:02:06.460Z,64.20
2023-01-29T03:04:42.550Z,64.30
2023-01-29T03:07:34.457Z,64.30
2023-01-29T03:10:04.676Z,64.40
2023-01-29T03:12:36.287Z,64.20
2023-01-29T03:15:14.167Z,64.20
2023-01-29T03:17:48.126Z,64.20
2023-01-29T03:20:20.644Z,64.20
2023-01-29T03:22:53.897Z,64.10
2023-01-29T03:25:41.241Z,64.20
2023-01-29T03:28:30.720Z,64.10
2023-01-29T03:31:21.726Z,64.10
2023-01-29T03:33:53.052Z,64.00
2023-01-29T03:36:28.281Z,64.00
2023-01-29T03:38:56.470Z,64.10
2023-01-29T03:41:29.782Z,64.10
2023-01-29T03:44:08.918Z,64.20
2023-01-29T03:46:46.645Z,64.20
2023-01-29T03:49:22.883Z,64.10
2023-01-29T03:51:57.527Z,64.10
2023-01-29T03:54:32.843Z,64.10
2023-01-29T03:57:05.166Z,64.00
2023-01-29T03:59:40.288Z,64.30
2023-01-29T04:02:14.270Z,64.40
2023-01-29T04:04:46.238Z,64.40
2023-01-29T04:07:17.271Z,64.40
2023-01-29T04:09:49.710Z,64.50
2023-01-29T04:12:22.919Z,64.40
2023-01-29T04:14:52.501Z,64.40
2023-01-29T04:17:26.724Z,64.30
2023-01-29T04:19:55.101Z,64.40
2023-01-29T04:22:29.115Z,64.40
2023-01-29T04:25:02.455Z,64.30
2023-01-29T04:27:42.150Z,64.30
2023-01-29T04:30:23.889Z,64.30
2023-01-29T04:33:04.120Z,64.20
2023-01-29T04:35:38.432Z,64.10
2023-01-29T04:38:15.652Z,64.10
2023-01-29T04:40:52.059Z,63.90
2023-01-29T04:43:27.930Z,63.90
2023-01-29T04:46:08.414Z,63.90
2023-01-29T04:48:48.804Z,63.90
2023-01-29T04:51:23.866Z,64.00
2023-01-29T04:54:00.269Z,64.10
2023-01-29T04:56:35.432Z,64.20
2023-01-29T04:59:07.501Z,64.20
2023-01-29T05:01:38.889Z,64.40
2023-01-29T05:04:12.018Z,64.40
2023-01-29T05:06:41.175Z,64.40
2023-01-29T05:09:10.311Z,64.30
2023-01-29T05:11:38.650Z,64.20
2023-01-29T05:14:11.012Z,64.20
2023-01-29T05:16:43.819Z,64.10
2023-01-29T05:19:15.976Z,64.10
2023-01-29T05:21:46.474Z,64.20
2023-01-29T05:24:17.277Z,64.10
2023-01-29T05:27:04.962Z,64.10
2023-01-29T05:29:33.199Z,64.30
2023-01-29T05:32:01.393Z,64.20
2023-01-29T05:34:31.038Z,64.30
2023-01-29T05:36:59.194Z,64.30
2023-01-29T05:39:27.583Z,64.40
2023-01-29T05:41:55.959Z,64.30
2023-01-29T05:44:24.119Z,64.30
2023-01-29T05:46:52.602Z,64.30
2023-01-29T05:49:22.376Z,64.40
2023-01-29T05:51:51.937Z,64.50
2023-01-29T05:54:20.167Z,65.20
2023-01-29T05:56:48.291Z,64.50
2023-01-29T05:59:16.819Z,64.50
2023-01-29T06:01:45.039Z,64.40
2023-01-29T06:04:13.327Z,64.30
2023-01-29T06:06:41.585Z,64.30
2023-01-29T06:09:12.666Z,64.30
2023-01-29T06:11:41.052Z,64.30
2023-01-29T06:14:09.224Z,64.40
2023-01-29T06:16:37.344Z,64.50
2023-01-29T06:19:05.565Z,64.50
2023-01-29T06:21:33.898Z,64.50
2023-01-29T06:24:02.146Z,64.60
2023-01-29T06:26:31.782Z,64.60
2023-01-29T06:28:59.991Z,64.60
2023-01-29T06:31:38.218Z,64.60
2023-01-29T06:34:07.890Z,64.60
2023-01-29T06:36:36.372Z,64.60
2023-01-29T06:39:05.665Z,64.60
2023-01-29T06:41:38.915Z,64.60
2023-01-29T06:44:07.154Z,64.60
2023-01-29T06:46:35.303Z,64.70
2023-01-29T06:49:03.521Z,64.70
2023-01-29T06:51:31.772Z,64.70
2023-01-29T06:53:59.933Z,64.70
2023-01-29T06:56:28.222Z,64.70
2023-01-29T06:58:57.824Z,64.70
2023-01-29T07:01:35.700Z,64.70
2023-01-29T07:04:04.901Z,64.70
2023-01-29T07:06:33.442Z,64.60
2023-01-29T07:09:01.702Z,64.50
2023-01-29T07:11:29.886Z,64.50
2023-01-29T07:13:59.445Z,64.40
2023-01-29T07:16:27.851Z,64.40
2023-01-29T07:18:56.522Z,64.30
2023-01-29T07:21:25.057Z,64.40
2023-01-29T07:23:53.275Z,64.60
2023-01-29T07:26:21.449Z,64.70
2023-01-29T07:28:49.601Z,64.80
2023-01-29T07:31:19.278Z,64.90
2023-01-29T07:33:47.533Z,64.80
2023-01-29T07:36:15.999Z,64.80
2023-01-29T07:38:44.177Z,64.90
2023-01-29T07:41:13.598Z,65.40
2023-01-29T07:43:41.731Z,65.00
2023-01-29T07:46:10.301Z,65.10
2023-01-29T07:48:39.886Z,65.00
2023-01-29T07:51:08.379Z,65.00
2023-01-29T07:53:36.993Z,65.00
2023-01-29T07:56:05.608Z,65.00
2023-01-29T07:58:35.750Z,64.90
2023-01-29T08:01:08.397Z,65.10
2023-01-29T08:03:36.784Z,65.20
2023-01-29T08:06:06.834Z,65.20
2023-01-29T08:08:35.117Z,65.20
2023-01-29T08:11:05.491Z,65.20
2023-01-29T08:13:34.486Z,65.20
2023-01-29T08:16:03.374Z,65.30
2023-01-29T08:18:32.217Z,65.30
2023-01-29T08:21:01.828Z,65.50
2023-01-29T08:23:31.691Z,65.40
2023-01-29T08:25:59.918Z,65.40
2023-01-29T08:28:28.206Z,65.30
2023-01-29T08:30:56.622Z,65.30
2023-01-29T08:33:38.075Z,65.50
2023-01-29T08:36:08.063Z,65.50
2023-01-29T08:38:37.707Z,65.50
2023-01-29T08:41:06.493Z,65.60
2023-01-29T08:43:36.736Z,65.60
2023-01-29T08:46:05.574Z,65.60
2023-01-29T08:48:33.799Z,65.50
2023-01-29T08:51:04.440Z,65.40
2023-01-29T08:53:32.922Z,66.20
2023-01-29T08:56:02.563Z,65.50
2023-01-29T08:58:30.825Z,65.50
2023-01-29T09:01:07.332Z,65.40
2023-01-29T09:03:35.507Z,65.60
2023-01-29T09:06:04.303Z,65.50
2023-01-29T09:08:32.511Z,65.50
2023-01-29T09:11:02.224Z,65.40
2023-01-29T09:13:30.714Z,65.40
2023-01-29T09:16:01.089Z,65.40
2023-01-29T09:18:31.828Z,66.20
2023-01-29T09:21:02.022Z,65.50
2023-01-29T09:23:30.677Z,65.50
2023-01-29T09:25:58.858Z,65.50
2023-01-29T09:28:28.473Z,65.50
2023-01-29T09:30:57.087Z,65.60
2023-01-29T09:33:26.141Z,65.50
2023-01-29T09:35:54.397Z,65.50
2023-01-29T09:38:22.621Z,65.40
2023-01-29T09:40:59.414Z,65.50
2023-01-29T09:43:40.265Z,66.10
2023-01-29T09:46:18.593Z,65.40
2023-01-29T09:48:49.139Z,65.50
2023-01-29T09:51:27.832Z,65.60
2023-01-29T09:54:06.741Z,65.60
2023-01-29T09:56:36.230Z,65.60
2023-01-29T09:59:05.790Z,65.60
2023-01-29T10:01:42.092Z,65.50
2023-01-29T10:04:46.784Z,65.30
2023-01-29T10:07:27.669Z,65.20
2023-01-29T10:10:22.862Z,65.20
2023-01-29T10:13:01.990Z,65.20
2023-01-29T10:15:46.552Z,65.20
2023-01-29T10:18:47.889Z,65.30
2023-01-29T10:21:33.909Z,65.40
2023-01-29T10:24:12.753Z,65.30
2023-01-29T10:26:41.784Z,65.20
2023-01-29T10:29:15.524Z,65.20
2023-01-29T10:31:49.152Z,65.30
2023-01-29T10:34:25.958Z,65.20
2023-01-29T10:36:56.867Z,65.00
2023-01-29T10:39:26.899Z,64.80
2023-01-29T10:42:19.639Z,64.70
2023-01-29T10:45:00.964Z,64.60
2023-01-29T10:47:49.327Z,64.40
2023-01-29T10:50:26.463Z,64.30
2023-01-29T10:53:08.222Z,64.30
2023-01-29T10:55:47.729Z,64.30
2023-01-29T10:58:27.596Z,64.10
2023-01-29T11:00:55.830Z,64.10
2023-01-29T11:03:28.926Z,64.00
2023-01-29T11:06:05.257Z,63.80
2023-01-29T11:08:39.397Z,63.60
2023-01-29T11:11:10.118Z,63.60
2023-01-29T11:13:43.712Z,63.50
2023-01-29T11:16:12.447Z,63.40
2023-01-29T11:18:54.617Z,63.30
2023-01-29T11:21:23.676Z,63.20
2023-01-29T11:23:52.384Z,63.20
2023-01-29T11:26:24.018Z,63.20
2023-01-29T11:28:52.657Z,63.20
2023-01-29T11:31:24.762Z,63.10
2023-01-29T11:34:03.102Z,62.90
2023-01-29T11:36:37.058Z,63.00
2023-01-29T11:39:21.671Z,63.00
2023-01-29T11:41:54.215Z,62.90
2023-01-29T11:44:28.761Z,62.70
2023-01-29T11:46:58.512Z,62.80
2023-01-29T11:49:34.817Z,62.80
2023-01-29T11:52:05.427Z,62.60
2023-01-29T11:54:38.316Z,62.60
2023-01-29T11:57:06.750Z,62.40
2023-01-29T11:59:42.855Z,62.50
2023-01-29T12:02:31.584Z,62.20
2023-01-29T12:05:04.389Z,62.10
2023-01-29T12:07:33.689Z,62.10
2023-01-29T12:10:01.944Z,62.10
2023-01-29T12:12:39.128Z,62.10
2023-01-29T12:15:18.157Z,62.10
2023-01-29T12:17:53.314Z,61.90
2023-01-29T12:20:29.451Z,61.90
2023-01-29T12:23:04.966Z,61.90
2023-01-29T12:25:42.344Z,61.90
2023-01-29T12:28:24.077Z,61.70
2023-01-29T12:31:12.817Z,61.80
2023-01-29T12:33:49.462Z,61.60
2023-01-29T12:36:26.521Z,61.60
2023-01-29T12:38:56.225Z,61.60
2023-01-29T12:41:31.881Z,61.40
2023-01-29T12:44:06.333Z,61.40
2023-01-29T12:46:39.889Z,61.20
2023-01-29T12:49:16.367Z,61.20
2023-01-29T12:51:54.317Z,61.20
2023-01-29T12:54:28.660Z,61.10
2023-01-29T12:57:01.076Z,61.00
2023-01-29T12:59:33.907Z,61.10
2023-01-29T13:02:12.514Z,61.20
2023-01-29T13:04:45.959Z,61.00
2023-01-29T13:07:18.793Z,61.00
2023-01-29T13:09:51.733Z,60.90
2023-01-29T13:12:23.059Z,60.90
2023-01-29T13:14:55.508Z,61.20
2023-01-29T13:17:27.683Z,61.30
2023-01-29T13:19:58.612Z,61.20
2023-01-29T13:22:30.608Z,61.00
2023-01-29T13:25:05.097Z,60.90
2023-01-29T13:27:36.062Z,60.70
2023-01-29T13:30:05.736Z,60.70
2023-01-29T13:32:36.850Z,60.40
2023-01-29T13:35:07.759Z,60.30
2023-01-29T13:37:42.106Z,60.30
2023-01-29T13:40:22.688Z,60.10
2023-01-29T13:42:53.095Z,60.10
2023-01-29T13:45:23.817Z,60.20
2023-01-29T13:47:53.809Z,60.10
2023-01-29T13:50:27.009Z,60.10
2023-01-29T13:53:00.374Z,60.20
2023-01-29T13:55:32.279Z,60.10
2023-01-29T13:58:01.264Z,60.00
2023-01-29T14:01:00.981Z,59.80
2023-01-29T14:04:05.525Z,59.80
2023-01-29T14:06:42.484Z,59.80
2023-01-29T14:09:50.490Z,59.90
2023-01-29T14:12:41.163Z,59.90
2023-01-29T14:15:32.289Z,59.90
2023-01-29T14:18:24.475Z,59.90
2023-01-29T14:20:59.531Z,60.00
2023-01-29T14:23:36.786Z,60.00
2023-01-29T14:26:07.403Z,60.00
2023-01-29T14:28:37.692Z,60.10
2023-01-29T14:31:07.565Z,60.00
2023-01-29T14:33:39.804Z,60.00
2023-01-29T14:36:13.436Z,59.90
2023-01-29T14:38:47.229Z,59.90
2023-01-29T14:41:22.995Z,59.80
2023-01-29T14:43:52.570Z,59.90
2023-01-29T14:46:43.709Z,59.90
2023-01-29T14:49:12.124Z,59.80
2023-01-29T14:51:45.341Z,59.70
2023-01-29T14:54:26.173Z,59.60
2023-01-29T14:57:00.454Z,59.30
2023-01-29T14:59:37.346Z,59.30
2023-01-29T15:02:16.718Z,59.10
2023-01-29T15:04:49.529Z,58.90
2023-01-29T15:07:26.375Z,58.80
2023-01-29T15:10:18.920Z,58.70
2023-01-29T15:12:50.416Z,58.70
2023-01-29T15:15:27.349Z,58.70
2023-01-29T15:18:00.753Z,58.70
2023-01-29T15:20:33.037Z,58.60
2023-01-29T15:23:03.162Z,58.50
2023-01-29T15:25:36.988Z,58.50
2023-01-29T15:28:10.159Z,58.40
2023-01-29T15:30:40.098Z,58.40
2023-01-29T15:33:11.608Z,58.40
2023-01-29T15:35:42.029Z,58.30
2023-01-29T15:38:17.367Z,58.40
2023-01-29T15:40:53.127Z,58.40
2023-01-29T15:43:23.465Z,58.40
2023-01-29T15:45:54.632Z,58.50
2023-01-29T15:48:31.990Z,58.40
2023-01-29T15:51:04.639Z,58.50
2023-01-29T15:53:37.209Z,58.40
2023-01-29T15:56:09.872Z,58.50
2023-01-29T15:58:38.511Z,58.40
2023-01-29T16:01:09.625Z,58.40
2023-01-29T16:03:38.915Z,58.40
2023-01-29T16:06:08.815Z,58.50
2023-01-29T16:08:39.407Z,58.50
2023-01-29T16:11:08.484Z,58.50
2023-01-29T16:13:41.006Z,58.50
2023-01-29T16:16:21.719Z,58.50
2023-01-29T16:18:59.961Z,58.50
2023-01-29T16:21:31.406Z,58.40
2023-01-29T16:24:02.270Z,58.40
2023-01-29T16:26:35.149Z,58.50
2023-01-29T16:29:05.892Z,58.50
2023-01-29T16:31:37.703Z,58.50
2023-01-29T16:34:09.828Z,58.50
2023-01-29T16:36:38.147Z,58.60
2023-01-29T16:39:14.419Z,58.70
2023-01-29T16:41:42.699Z,58.70
2023-01-29T16:44:33.743Z,58.70
2023-01-29T16:47:13.761Z,58.80
2023-01-29T16:49:49.597Z,58.80
2023-01-29T16:52:19.988Z,58.80
2023-01-29T16:54:48.162Z,58.90
2023-01-29T16:57:19.670Z,58.90
2023-01-29T16:59:48.421Z,58.90
2023-01-29T17:02:23.578Z,58.90
2023-01-29T17:04:53.625Z,58.90
2023-01-29T17:07:22.420Z,59.00
2023-01-29T17:09:54.223Z,59.00
2023-01-29T17:12:25.299Z,59.00
2023-01-29T17:14:55.508Z,58.90
2023-01-29T17:17:30.611Z,59.00
2023-01-29T17:19:59.460Z,59.00
2023-01-29T17:22:27.631Z,59.10
2023-01-29T17:24:55.812Z,59.00
2023-01-29T17:27:24.568Z,59.20
2023-01-29T17:29:53.654Z,59.80
2023-01-29T17:32:22.466Z,59.20
2023-01-29T17:34:52.513Z,59.20
2023-01-29T17:37:20.735Z,59.20
2023-01-29T17:39:52.527Z,59.20
2023-01-29T17:42:20.730Z,59.20
2023-01-29T17:44:50.119Z,59.20
2023-01-29T17:47:18.888Z,59.20
2023-01-29T17:49:47.759Z,59.20
2023-01-29T17:52:17.370Z,59.20
2023-01-29T17:54:45.525Z,60.00
2023-01-29T17:57:16.253Z,59.20
2023-01-29T17:59:45.494Z,59.30
2023-01-29T18:02:29.027Z,59.30
2023-01-29T18:04:58.119Z,59.30
2023-01-29T18:07:27.735Z,59.20
2023-01-29T18:09:55.923Z,59.30
2023-01-29T18:12:24.057Z,59.30
2023-01-29T18:14:54.997Z,59.30
2023-01-29T18:17:23.711Z,59.30
2023-01-29T18:19:51.894Z,59.20
2023-01-29T18:22:21.734Z,59.30
2023-01-29T18:24:51.481Z,59.30
2023-01-29T18:27:20.325Z,59.30
2023-01-29T18:29:50.313Z,59.20
2023-01-29T18:32:18.551Z,59.20
2023-01-29T18:34:46.771Z,59.10
2023-01-29T18:37:15.250Z,59.10
2023-01-29T18:39:43.484Z,59.10
2023-01-29T18:42:13.089Z,59.00
2023-01-29T18:44:41.360Z,59.00
2023-01-29T18:47:09.624Z,58.90
2023-01-29T18:49:39.121Z,59.50
2023-01-29T18:52:07.498Z,58.90
2023-01-29T18:54:35.902Z,58.90
2023-01-29T18:57:13.752Z,58.90
2023-01-29T18:59:53.760Z,58.80
2023-01-29T19:02:25.103Z,58.90
2023-01-29T19:04:54.794Z,58.90
2023-01-29T19:07:22.968Z,58.90
2023-01-29T19:09:51.220Z,58.80
2023-01-29T19:12:19.483Z,58.80
2023-01-29T19:14:47.803Z,58.90
2023-01-29T19:17:18.361Z,58.90
2023-01-29T19:19:49.506Z,58.90
2023-01-29T19:22:17.895Z,59.00
2023-01-29T19:24:46.122Z,59.00
2023-01-29T19:27:14.519Z,59.00
2023-01-29T19:29:42.711Z,59.00
2023-01-29T19:32:11.560Z,59.10
2023-01-29T19:34:41.433Z,59.10
2023-01-29T19:37:09.658Z,59.10
2023-01-29T19:39:38.119Z,59.20
2023-01-29T19:42:06.419Z,59.20
2023-01-29T19:44:34.993Z,59.20
2023-01-29T19:47:03.329Z,59.40
2023-01-29T19:49:33.913Z,59.40
2023-01-29T19:52:03.443Z,59.40
2023-01-29T19:54:31.606Z,59.40
2023-01-29T19:56:59.959Z,59.40
2023-01-29T19:59:28.302Z,59.50
2023-01-29T20:01:56.917Z,59.60
2023-01-29T20:04:26.790Z,59.70
2023-01-29T20:06:55.324Z,59.80
2023-01-29T20:09:24.844Z,59.90
2023-01-29T20:11:53.044Z,60.00
2023-01-29T20:14:21.357Z,60.00
2023-01-29T20:16:49.837Z,60.10
2023-01-29T20:19:20.004Z,60.30
2023-01-29T20:21:49.892Z,60.50
2023-01-29T20:24:18.398Z,60.60
2023-01-29T20:26:48.062Z,60.70
2023-01-29T20:29:16.294Z,60.80
2023-01-29T20:31:44.530Z,61.00
2023-01-29T20:34:12.759Z,61.20
2023-01-29T20:36:40.934Z,61.20
2023-01-29T20:39:09.203Z,61.30
2023-01-29T20:41:41.434Z,61.50
2023-01-29T20:44:11.294Z,61.50
2023-01-29T20:46:39.518Z,61.70
2023-01-29T20:49:07.822Z,61.90
2023-01-29T20:51:36.349Z,62.00
2023-01-29T20:54:04.851Z,62.10
2023-01-29T20:56:38.998Z,62.20
2023-01-29T20:59:17.303Z,62.30
2023-01-29T21:01:46.210Z,62.50
2023-01-29T21:04:14.544Z,62.60
2023-01-29T21:06:43.097Z,62.70
2023-01-29T21:09:11.279Z,62.80
2023-01-29T21:11:39.416Z,63.10
2023-01-29T21:14:07.851Z,63.20
2023-01-29T21:16:37.389Z,63.20
2023-01-29T21:19:05.576Z,63.30
2023-01-29T21:21:34.544Z,63.40
2023-01-29T21:24:02.757Z,63.40
2023-01-29T21:26:30.903Z,63.70
2023-01-29T21:28:59.064Z,63.70
2023-01-29T21:31:27.304Z,63.80
2023-01-29T21:33:56.892Z,63.80
2023-01-29T21:36:25.054Z,63.80
2023-01-29T21:38:53.252Z,63.80
2023-01-29T21:41:41.758Z,63.90
2023-01-29T21:44:09.075Z,63.90
2023-01-29T21:46:37.579Z,63.90
2023-01-29T21:49:07.368Z,63.90
2023-01-29T21:51:35.535Z,63.90
2023-01-29T21:54:03.713Z,64.00
2023-01-29T21:56:32.083Z,64.00
2023-01-29T21:59:00.705Z,64.00
2023-01-29T22:01:37.304Z,64.00
2023-01-29T22:04:11.535Z,64.10
2023-01-29T22:06:39.776Z,64.10
2023-01-29T22:09:10.770Z,64.10
2023-01-29T22:11:41.218Z,64.20
2023-01-29T22:14:09.594Z,64.30
2023-01-29T22:16:37.892Z,64.30
2023-01-29T22:19:16.155Z,64.40
2023-01-29T22:21:44.652Z,65.30
2023-01-29T22:24:13.325Z,64.70
2023-01-29T22:26:42.419Z,64.90
2023-01-29T22:29:12.559Z,65.10
2023-01-29T22:31:41.187Z,65.30
2023-01-29T22:34:10.984Z,65.50
2023-01-29T22:36:40.665Z,65.70
2023-01-29T22:39:09.830Z,65.90
2023-01-29T22:41:38.196Z,65.90
2023-01-29T22:44:06.545Z,66.00
2023-01-29T22:46:34.786Z,66.20
2023-01-29T22:49:03.055Z,66.30
2023-01-29T22:51:31.332Z,66.50
2023-01-29T22:54:01.124Z,66.70
2023-01-29T22:56:31.079Z,66.70
2023-01-29T22:59:02.690Z,66.90
2023-01-29T23:01:32.804Z,67.00
2023-01-29T23:04:01.031Z,67.20
2023-01-29T23:06:29.226Z,67.30
2023-01-29T23:08:57.430Z,67.50
2023-01-29T23:11:27.061Z,67.70
2023-01-29T23:13:55.961Z,67.60
2023-01-29T23:16:27.655Z,67.70
2023-01-29T23:18:56.955Z,67.90
2023-01-29T23:21:27.164Z,68.00
2023-01-29T23:23:55.378Z,68.00
2023-01-29T23:26:41.341Z,68.10
2023-01-29T23:29:11.282Z,68.80
2023-01-29T23:31:39.682Z,68.30
2023-01-29T23:34:07.925Z,68.50
2023-01-29T23:36:36.148Z,68.70
2023-01-29T23:39:04.666Z,69.00
2023-01-29T23:41:33.256Z,69.00
2023-01-29T23:44:01.423Z,69.70
2023-01-29T23:46:31.144Z,69.10
2023-01-29T23:48:59.471Z,69.20
2023-01-29T23:51:27.698Z,69.10
2023-01-29T23:53:56.027Z,69.30
2023-01-29T23:56:24.411Z,69.30
2023-01-29T23:58:54.532Z,69.40
